Time;durP1;ratioP1;P1;durP2;ratioP2;P2;SDS_P1;SDS_P2;PMS_P1;PMS_P2;Temp;Humidity;BMP_temperature;BMP_pressure;BME280_temperature;BME280_humidity;BME280_pressure;Samples;Min_cycle;Max_cycle;Signal;HPM_P1;HPM_P2
2022/04/03 00:00:13;;;;;;;;;;;;;;;12.81;48.69;102111.31;1049391;28;578;-58
2022/04/03 00:01:04;;;;;;;;;;;;;;;12.81;49.10;102111.31;1049199;28;918;-58
2022/04/03 00:01:54;;;;;;;;;;;;;;;12.79;49.65;102105.16;1048770;28;740;-58
2022/04/03 00:02:45;;;;;;;;;;;;;;;12.78;48.64;102111.47;1049166;28;696;-58
2022/04/03 00:03:36;;;;;;;;;;;;;;;12.78;48.93;102111.47;1049377;28;577;-58
2022/04/03 00:04:26;;;;;;;;;;;;;;;12.78;48.69;102111.47;1048282;28;697;-59
2022/04/03 00:05:18;;;;;;;;;;;;;;;12.78;48.91;102110.59;1049245;28;647;-58
2022/04/03 00:06:09;;;;;;;;;;;;;;;12.76;49.29;102113.34;1047968;28;643;-58
2022/04/03 00:07:00;;;;;;;;;;;;;;;12.76;49.42;102115.16;1048801;28;660;-59
2022/04/03 00:07:51;;;;;;;;;;;;;;;12.76;49.16;102113.34;1049114;28;542;-58
2022/04/03 00:08:41;;;;;;;;;;;;;;;12.75;49.52;102111.63;1048940;28;987;-60
2022/04/03 00:09:32;;;;;;;;;;;;;;;12.74;48.88;102111.72;1049844;28;614;-59
2022/04/03 00:10:22;;;;;;;;;;;;;;;12.73;49.36;102108.16;1048659;28;653;-59
2022/04/03 00:11:12;;;;;;;;;;;;;;;12.72;48.90;102117.13;1049323;28;641;-59
2022/04/03 00:12:03;;;;;;;;;;;;;;;12.72;49.20;102109.09;1049101;28;677;-59
2022/04/03 00:12:53;;;;;;;;;;;;;;;12.71;48.55;102115.44;1053617;28;791;-59
2022/04/03 00:13:44;;;;;;;;;;;;;;;12.70;49.16;102111.03;1052479;28;638;-58
2022/04/03 00:14:35;;;;;;;;;;;;;;;12.71;49.40;102110.09;1048106;28;620;-59
2022/04/03 00:15:25;;;;;;;;;;;;;;;12.70;48.67;102105.69;1049400;28;664;-59
2022/04/03 00:16:15;;;;;;;;;;;;;;;12.69;49.28;102111.09;1047987;28;658;-59
2022/04/03 00:17:06;;;;;;;;;;;;;;;12.67;49.05;102107.66;1049098;28;700;-59
2022/04/03 00:17:56;;;;;;;;;;;;;;;12.67;48.54;102107.66;1048806;28;629;-58
2022/04/03 00:18:47;;;;;;;;;;;;;;;12.67;48.72;102118.34;1049244;28;649;-59
2022/04/03 00:19:38;;;;;;;;;;;;;;;12.66;48.54;102109.47;1049293;28;1668;-59
2022/04/03 00:20:28;;;;;;;;;;;;;;;12.65;49.40;102107.72;1049134;28;655;-59
2022/04/03 00:21:19;;;;;;;;;;;;;;;12.65;48.98;102107.72;1049094;28;641;-59
2022/04/03 00:22:09;;;;;;;;;;;;;;;12.65;48.59;102102.38;1052455;28;728;-59
2022/04/03 00:22:59;;;;;;;;;;;;;;;12.63;48.45;102098.91;1052998;28;652;-58
2022/04/03 00:23:50;;;;;;;;;;;;;;;12.63;48.57;102101.59;1048204;28;696;-58
2022/04/03 00:24:41;;;;;;;;;;;;;;;12.64;48.82;102102.47;1048755;28;868;-59
2022/04/03 00:25:31;;;;;;;;;;;;;;;12.61;48.61;102100.81;1049126;28;708;-58
2022/04/03 00:26:22;;;;;;;;;;;;;;;12.61;48.99;102107.97;1049125;28;594;-58
2022/04/03 00:27:12;;;;;;;;;;;;;;;12.60;49.21;102115.13;1049060;28;657;-59
2022/04/03 00:28:03;;;;;;;;;;;;;;;12.58;49.39;102106.31;1049060;28;626;-59
2022/04/03 00:28:53;;;;;;;;;;;;;;;12.58;48.78;102109.00;1047985;28;666;-59
2022/04/03 00:29:43;;;;;;;;;;;;;;;12.58;49.42;102108.13;1049273;28;672;-59
2022/04/03 00:30:34;;;;;;;;;;;;;;;12.58;49.00;102109.00;1049139;28;652;-59
2022/04/03 00:31:24;;;;;;;;;;;;;;;12.57;48.77;102107.25;1049154;28;661;-59
2022/04/03 00:32:15;;;;;;;;;;;;;;;12.56;48.99;102102.00;1049105;28;693;-59
2022/04/03 00:33:06;;;;;;;;;;;;;;;12.55;48.85;102101.13;1048976;28;637;-59
2022/04/03 00:33:56;;;;;;;;;;;;;;;12.57;48.57;102103.72;1049071;28;656;-59
2022/04/03 00:34:46;;;;;;;;;;;;;;;12.55;48.85;102098.44;1049131;28;731;-59
2022/04/03 00:35:37;;;;;;;;;;;;;;;12.55;49.15;102101.13;1052391;28;668;-59
2022/04/03 00:36:27;;;;;;;;;;;;;;;12.57;48.62;102106.38;1052484;28;614;-58
2022/04/03 00:37:18;;;;;;;;;;;;;;;12.55;49.22;102106.47;1047967;28;1953;-59
2022/04/03 00:38:08;;;;;;;;;;;;;;;12.55;48.50;102102.94;1049157;28;720;-59
2022/04/03 00:38:59;;;;;;;;;;;;;;;12.54;48.84;102096.72;1048442;28;672;-59
2022/04/03 00:39:49;;;;;;;;;;;;;;;12.55;48.70;102102.94;1049141;28;672;-59
2022/04/03 00:40:40;;;;;;;;;;;;;;;12.54;49.14;102106.59;1048376;28;645;-59
2022/04/03 00:41:30;;;;;;;;;;;;;;;12.54;48.54;102102.06;1049064;28;646;-59
2022/04/03 00:42:20;;;;;;;;;;;;;;;12.54;49.25;102096.72;1049188;28;721;-59
2022/04/03 00:43:11;;;;;;;;;;;;;;;12.53;48.79;102100.38;1048467;28;676;-59
2022/04/03 00:44:01;;;;;;;;;;;;;;;12.54;48.95;102103.91;1049173;28;660;-59
2022/04/03 00:44:52;;;;;;;;;;;;;;;12.52;49.24;102104.84;1049060;28;633;-59
2022/04/03 00:45:42;;;;;;;;;;;;;;;12.52;48.60;102104.84;1048078;28;620;-59
2022/04/03 00:46:33;;;;;;;;;;;;;;;12.52;48.67;102106.66;1048583;28;645;-59
2022/04/03 00:47:23;;;;;;;;;;;;;;;12.52;49.20;102104.00;1040624;28;1643;-59
2022/04/03 00:48:14;;;;;;;;;;;;;;;12.51;49.03;102103.13;1041373;28;645;-59
2022/04/03 00:49:04;;;;;;;;;;;;;;;12.51;48.57;102096.91;1040839;28;602;-59
2022/04/03 00:49:55;;;;;;;;;;;;;;;12.50;48.59;102100.53;1040157;28;693;-58
2022/04/03 00:50:45;;;;;;;;;;;;;;;12.50;48.46;102100.53;1045601;28;1200;-59
2022/04/03 00:51:36;;;;;;;;;;;;;;;12.49;48.43;102104.16;1049024;28;664;-59
2022/04/03 00:52:26;;;;;;;;;;;;;;;12.49;48.65;102106.81;1048551;28;657;-59
2022/04/03 00:53:16;;;;;;;;;;;;;;;12.49;48.93;102101.47;1048285;28;661;-59
2022/04/03 00:54:08;;;;;;;;;;;;;;;12.48;48.44;102108.63;1048570;28;591;-59
2022/04/03 00:54:58;;;;;;;;;;;;;;;12.46;49.04;102110.50;1049048;28;637;-59
2022/04/03 00:55:48;;;;;;;;;;;;;;;12.46;48.71;102104.31;1046922;28;1678;-59
2022/04/03 00:56:39;;;;;;;;;;;;;;;12.46;48.90;102104.31;1045509;28;632;-59
2022/04/03 00:57:29;;;;;;;;;;;;;;;12.46;48.77;102107.84;1045439;28;1910;-58
2022/04/03 00:58:20;;;;;;;;;;;;;;;12.44;48.64;102108.84;1045440;28;708;-58
2022/04/03 00:59:10;;;;;;;;;;;;;;;12.43;48.74;102104.47;1044891;28;680;-57
2022/04/03 01:00:01;;;;;;;;;;;;;;;12.43;49.00;102115.16;1044298;28;776;-58
2022/04/03 01:00:51;;;;;;;;;;;;;;;12.42;48.52;102111.63;1045521;28;716;-57
2022/04/03 01:01:41;;;;;;;;;;;;;;;12.42;48.45;102103.59;1044790;28;763;-58
2022/04/03 01:02:32;;;;;;;;;;;;;;;12.41;48.63;102111.69;1044819;28;692;-58
2022/04/03 01:03:22;;;;;;;;;;;;;;;12.40;48.89;102104.59;1045431;28;566;-58
2022/04/03 01:04:13;;;;;;;;;;;;;;;12.39;48.85;102109.09;1044478;28;1635;-58
2022/04/03 01:05:03;;;;;;;;;;;;;;;12.38;48.77;102101.16;1044638;28;696;-57
2022/04/03 01:05:55;;;;;;;;;;;;;;;12.38;48.67;102103.81;1043872;28;821;-58
2022/04/03 01:06:46;;;;;;;;;;;;;;;12.38;48.38;102098.47;1044542;28;630;-57
2022/04/03 01:07:36;;;;;;;;;;;;;;;12.36;47.93;102098.56;1044073;28;594;-58
2022/04/03 01:08:27;;;;;;;;;;;;;;;12.35;48.83;102101.34;1045250;28;645;-57
2022/04/03 01:09:17;;;;;;;;;;;;;;;12.35;48.98;102107.56;1044551;28;880;-58
2022/04/03 01:10:07;;;;;;;;;;;;;;;12.34;48.57;102102.28;1045159;28;747;-57
2022/04/03 01:10:58;;;;;;;;;;;;;;;12.34;48.65;102102.28;1044526;28;689;-57
2022/04/03 01:11:48;;;;;;;;;;;;;;;12.33;48.87;102105.91;1044134;28;560;-58
2022/04/03 01:12:39;;;;;;;;;;;;;;;12.32;48.65;102102.34;1045269;28;681;-57
2022/04/03 01:13:29;;;;;;;;;;;;;;;12.31;48.39;102100.63;1044703;28;804;-58
2022/04/03 01:14:20;;;;;;;;;;;;;;;12.31;49.03;102095.28;1044888;28;634;-58
2022/04/03 01:15:10;;;;;;;;;;;;;;;12.31;48.34;102097.09;1044858;28;661;-58
2022/04/03 01:16:01;;;;;;;;;;;;;;;12.30;48.89;102096.22;1044781;28;657;-58
2022/04/03 01:16:51;;;;;;;;;;;;;;;12.30;48.83;102095.34;1044607;28;1508;-58
2022/04/03 01:17:42;;;;;;;;;;;;;;;12.30;48.31;102098.91;1044751;28;654;-58
2022/04/03 01:18:32;;;;;;;;;;;;;;;12.29;48.82;102093.63;1044902;28;677;-58
2022/04/03 01:19:24;;;;;;;;;;;;;;;12.27;48.75;102092.84;1045395;28;685;-57
2022/04/03 01:20:14;;;;;;;;;;;;;;;12.27;48.09;102103.53;1045104;28;662;-57
2022/04/03 01:21:04;;;;;;;;;;;;;;;12.28;48.41;102097.25;1044707;28;665;-57
2022/04/03 01:21:55;;;;;;;;;;;;;;;12.27;49.16;102095.50;1044493;28;576;-57
2022/04/03 01:22:45;;;;;;;;;;;;;;;12.25;48.78;102095.59;1044508;28;692;-57
2022/04/03 01:23:36;;;;;;;;;;;;;;;12.25;48.87;102092.06;1043768;28;644;-57
2022/04/03 01:24:26;;;;;;;;;;;;;;;12.24;48.46;102093.84;1044724;28;700;-57
2022/04/03 01:25:16;;;;;;;;;;;;;;;12.26;48.16;102096.44;1045204;28;712;-57
2022/04/03 01:26:07;;;;;;;;;;;;;;;12.25;48.69;102095.59;1044840;28;637;-58
2022/04/03 01:26:57;;;;;;;;;;;;;;;12.24;48.51;102095.66;1044649;28;686;-58
2022/04/03 01:27:48;;;;;;;;;;;;;;;12.23;48.29;102086.78;1045406;28;672;-58
2022/04/03 01:28:38;;;;;;;;;;;;;;;12.23;48.64;102094.81;1044311;28;602;-58
2022/04/03 01:29:29;;;;;;;;;;;;;;;12.22;48.62;102094.88;1044476;28;704;-58
2022/04/03 01:30:19;;;;;;;;;;;;;;;12.23;48.99;102101.94;1045371;28;661;-58
2022/04/03 01:31:10;;;;;;;;;;;;;;;12.22;48.20;102092.19;1044949;28;646;-58
2022/04/03 01:32:00;;;;;;;;;;;;;;;12.21;48.36;102090.47;1044703;28;671;-58
2022/04/03 01:32:51;;;;;;;;;;;;;;;12.21;48.02;102087.81;1044711;28;638;-57
2022/04/03 01:33:41;;;;;;;;;;;;;;;12.20;48.87;102092.28;1045264;28;637;-57
2022/04/03 01:34:31;;;;;;;;;;;;;;;12.20;48.51;102091.41;1044759;28;724;-57
2022/04/03 01:35:23;;;;;;;;;;;;;;;12.19;48.68;102093.22;1044555;28;1059;-57
2022/04/03 01:36:13;;;;;;;;;;;;;;;12.18;48.41;102090.66;1044737;28;681;-58
2022/04/03 01:37:04;;;;;;;;;;;;;;;12.18;48.75;102089.69;1044826;28;618;-58
2022/04/03 01:37:55;;;;;;;;;;;;;;;12.18;48.66;102091.53;1044303;28;673;-58
2022/04/03 01:38:45;;;;;;;;;;;;;;;12.18;48.63;102096.00;1043864;28;606;-58
2022/04/03 01:39:35;;;;;;;;;;;;;;;12.16;48.63;102091.59;1044617;28;601;-58
2022/04/03 01:40:26;;;;;;;;;;;;;;;12.16;48.44;102091.59;1045240;28;685;-57
2022/04/03 01:41:16;;;;;;;;;;;;;;;12.16;48.25;102090.75;1045286;28;657;-58
2022/04/03 01:42:07;;;;;;;;;;;;;;;12.15;48.68;102095.22;1045317;28;684;-58
2022/04/03 01:42:57;;;;;;;;;;;;;;;12.13;48.22;102081.06;1044721;28;642;-58
2022/04/03 01:43:48;;;;;;;;;;;;;;;12.16;48.04;102088.06;1045252;28;601;-60
2022/04/03 01:44:38;;;;;;;;;;;;;;;12.14;48.51;102082.81;1044742;28;664;-59
2022/04/03 01:45:29;;;;;;;;;;;;;;;12.13;48.59;102086.41;1044652;28;694;-59
2022/04/03 01:46:19;;;;;;;;;;;;;;;12.13;48.17;102089.09;1044387;28;1754;-58
2022/04/03 01:47:10;;;;;;;;;;;;;;;12.13;48.55;102090.88;1041047;28;1155;-57
2022/04/03 01:48:00;;;;;;;;;;;;;;;12.12;47.96;102089.16;1049082;28;684;-58
2022/04/03 01:48:50;;;;;;;;;;;;;;;12.11;49.04;102090.97;1049128;28;705;-58
2022/04/03 01:49:41;;;;;;;;;;;;;;;12.11;48.12;102088.28;1041235;28;684;-58
2022/04/03 01:50:31;;;;;;;;;;;;;;;12.11;48.32;102088.28;1041489;28;1259;-58
2022/04/03 01:51:22;;;;;;;;;;;;;;;12.12;48.34;102089.16;1049368;28;689;-58
2022/04/03 01:52:12;;;;;;;;;;;;;;;12.12;48.20;102098.03;1049397;28;625;-58
2022/04/03 01:53:03;;;;;;;;;;;;;;;12.12;48.32;102094.50;1049311;28;646;-57
2022/04/03 01:53:54;;;;;;;;;;;;;;;12.14;48.83;102093.50;1049303;28;610;-57
2022/04/03 01:54:44;;;;;;;;;;;;;;;12.14;48.71;102095.28;1049265;28;709;-57
2022/04/03 01:55:35;;;;;;;;;;;;;;;12.13;48.17;102091.75;1049294;28;634;-57
2022/04/03 01:56:25;;;;;;;;;;;;;;;12.13;48.56;102091.75;1049247;28;659;-57
2022/04/03 01:57:15;;;;;;;;;;;;;;;12.14;48.92;102097.97;1048720;28;1917;-57
2022/04/03 01:58:08;;;;;;;;;;;;;;;12.15;48.36;102097.03;1049286;28;639;-57
2022/04/03 01:58:58;;;;;;;;;;;;;;;12.13;48.75;102094.44;1049194;28;708;-57
2022/04/03 01:59:49;;;;;;;;;;;;;;;12.13;48.51;102091.75;1049191;28;717;-57
2022/04/03 02:00:40;;;;;;;;;;;;;;;12.14;48.94;102097.97;1053206;28;998;-58
2022/04/03 02:01:31;;;;;;;;;;;;;;;12.14;48.85;102097.97;1053195;28;645;-57
2022/04/03 02:02:21;;;;;;;;;;;;;;;12.13;48.61;102086.41;1048448;28;676;-57
2022/04/03 02:03:11;;;;;;;;;;;;;;;12.15;48.52;102095.22;1042124;28;649;-58
2022/04/03 02:04:03;;;;;;;;;;;;;;;12.14;48.19;102087.28;1041105;28;567;-58
2022/04/03 02:04:53;;;;;;;;;;;;;;;12.13;48.29;102085.53;1039841;28;622;-58
2022/04/03 02:05:43;;;;;;;;;;;;;;;12.14;48.11;102089.94;1040017;28;658;-58
2022/04/03 02:06:34;;;;;;;;;;;;;;;12.15;48.68;102095.22;1041055;28;627;-57
2022/04/03 02:07:25;;;;;;;;;;;;;;;12.14;48.62;102081.94;1041060;28;645;-58
2022/04/03 02:08:16;;;;;;;;;;;;;;;12.12;48.88;102079.34;1041072;28;629;-57
2022/04/03 02:09:07;;;;;;;;;;;;;;;12.13;48.48;102085.53;1041011;28;621;-57
2022/04/03 02:09:58;;;;;;;;;;;;;;;12.13;48.21;102089.09;1041054;28;670;-57
2022/04/03 02:10:48;;;;;;;;;;;;;;;12.13;48.70;102085.53;1041012;28;657;-57
2022/04/03 02:11:39;;;;;;;;;;;;;;;12.13;48.64;102086.41;1041010;28;692;-58
2022/04/03 02:12:29;;;;;;;;;;;;;;;12.12;48.19;102082.00;1040694;28;645;-57
2022/04/03 02:13:20;;;;;;;;;;;;;;;12.11;48.65;102072.25;1041163;28;684;-57
2022/04/03 02:14:10;;;;;;;;;;;;;;;12.12;48.77;102074.00;1049090;28;661;-59
2022/04/03 02:15:01;;;;;;;;;;;;;;;12.12;48.48;102074.00;1049658;28;648;-57
2022/04/03 02:15:51;;;;;;;;;;;;;;;12.11;48.51;102071.41;1045558;28;842;-58
2022/04/03 02:16:41;;;;;;;;;;;;;;;12.11;48.38;102074.94;1043958;28;1805;-58
2022/04/03 02:17:32;;;;;;;;;;;;;;;12.10;48.59;102072.34;1044815;28;1945;-58
2022/04/03 02:18:23;;;;;;;;;;;;;;;12.09;48.18;102073.28;1044925;28;688;-57
2022/04/03 02:19:13;;;;;;;;;;;;;;;12.10;49.02;102078.53;1045256;28;747;-57
2022/04/03 02:20:04;;;;;;;;;;;;;;;12.09;48.86;102074.16;1044557;28;736;-58
2022/04/03 02:20:54;;;;;;;;;;;;;;;12.06;48.78;102076.97;1044658;28;619;-59
2022/04/03 02:21:44;;;;;;;;;;;;;;;12.07;48.63;102076.03;1045413;28;712;-57
2022/04/03 02:22:35;;;;;;;;;;;;;;;12.06;48.70;102082.31;1045209;28;609;-57
2022/04/03 02:23:26;;;;;;;;;;;;;;;12.07;48.96;102083.19;1044263;28;650;-57
2022/04/03 02:24:16;;;;;;;;;;;;;;;12.07;48.99;102081.38;1045690;28;633;-57
2022/04/03 02:25:09;;;;;;;;;;;;;;;12.06;48.41;102079.66;1044667;28;641;-58
2022/04/03 02:26:00;;;;;;;;;;;;;;;12.05;48.77;102083.25;1044588;28;606;-57
2022/04/03 02:26:51;;;;;;;;;;;;;;;12.04;48.91;102078.84;1045068;28;713;-57
2022/04/03 02:27:41;;;;;;;;;;;;;;;12.04;48.94;102080.66;1044611;28;710;-57
2022/04/03 02:28:32;;;;;;;;;;;;;;;12.03;49.20;102087.81;1044819;28;625;-57
2022/04/03 02:29:22;;;;;;;;;;;;;;;12.03;48.80;102087.81;1045300;28;649;-57
2022/04/03 02:30:13;;;;;;;;;;;;;;;12.02;48.95;102082.53;1045385;28;712;-55
2022/04/03 02:31:03;;;;;;;;;;;;;;;12.02;49.00;102077.19;1044899;28;752;-54
2022/04/03 02:31:54;;;;;;;;;;;;;;;12.02;48.77;102075.38;1044599;28;657;-55
2022/04/03 02:32:45;;;;;;;;;;;;;;;12.01;49.17;102080.81;1044787;28;744;-57
2022/04/03 02:33:35;;;;;;;;;;;;;;;12.01;48.73;102079.00;1045769;28;701;-57
2022/04/03 02:34:26;;;;;;;;;;;;;;;12.02;49.14;102079.88;1044511;28;629;-57
2022/04/03 02:35:16;;;;;;;;;;;;;;;12.02;48.67;102082.53;1044701;28;668;-58
2022/04/03 02:36:07;;;;;;;;;;;;;;;12.00;49.42;102079.94;1044495;28;678;-57
2022/04/03 02:36:57;;;;;;;;;;;;;;;12.00;48.59;102079.13;1045703;28;680;-58
2022/04/03 02:37:48;;;;;;;;;;;;;;;11.99;48.76;102086.25;1044380;28;680;-58
2022/04/03 02:38:39;;;;;;;;;;;;;;;11.99;49.35;102085.41;1044564;28;637;-57
2022/04/03 02:39:29;;;;;;;;;;;;;;;11.98;48.83;102079.19;1044540;28;615;-57
2022/04/03 02:40:20;;;;;;;;;;;;;;;11.98;49.47;102078.31;1044449;28;702;-58
2022/04/03 02:41:12;;;;;;;;;;;;;;;11.97;49.12;102080.13;1045227;28;618;-58
2022/04/03 02:42:04;;;;;;;;;;;;;;;11.96;48.59;102082.88;1044485;28;689;-58
2022/04/03 02:42:55;;;;;;;;;;;;;;;11.95;48.82;102087.34;1044358;28;638;-57
2022/04/03 02:43:45;;;;;;;;;;;;;;;11.95;49.12;102084.69;1044540;28;677;-57
2022/04/03 02:44:36;;;;;;;;;;;;;;;11.95;49.05;102079.34;1044474;28;654;-57
2022/04/03 02:45:26;;;;;;;;;;;;;;;11.94;49.14;102082.94;1045699;28;626;-58
2022/04/03 02:46:17;;;;;;;;;;;;;;;11.94;49.00;102085.63;1042532;28;1663;-58
2022/04/03 02:47:07;;;;;;;;;;;;;;;11.93;49.13;102080.34;1047121;28;1232;-58
2022/04/03 02:47:58;;;;;;;;;;;;;;;11.93;49.14;102075.88;1048557;28;657;-58
2022/04/03 02:48:49;;;;;;;;;;;;;;;11.93;48.93;102073.22;1048596;28;653;-58
2022/04/03 02:49:39;;;;;;;;;;;;;;;11.92;48.59;102074.16;1048183;28;665;-59
2022/04/03 02:50:30;;;;;;;;;;;;;;;11.92;49.08;102082.16;1052928;28;1180;-58
2022/04/03 02:51:20;;;;;;;;;;;;;;;11.90;49.31;102081.38;1060438;28;610;-58
2022/04/03 02:52:11;;;;;;;;;;;;;;;11.90;49.13;102085.84;1056722;28;628;-58
2022/04/03 02:53:03;;;;;;;;;;;;;;;11.91;49.11;102074.22;1055491;28;641;-59
2022/04/03 02:53:53;;;;;;;;;;;;;;;11.90;49.16;102073.34;1055877;28;696;-57
2022/04/03 02:54:45;;;;;;;;;;;;;;;11.88;49.06;102077.91;1055817;28;650;-58
2022/04/03 02:55:35;;;;;;;;;;;;;;;11.87;49.04;102080.66;1055267;28;717;-58
2022/04/03 02:56:25;;;;;;;;;;;;;;;11.88;49.14;102069.91;1056019;28;700;-58
2022/04/03 02:57:16;;;;;;;;;;;;;;;11.87;48.84;102076.19;1055672;28;1977;-58
2022/04/03 02:58:06;;;;;;;;;;;;;;;11.88;48.67;102075.25;1055799;28;708;-58
2022/04/03 02:58:57;;;;;;;;;;;;;;;11.85;48.98;102080.72;1056200;28;755;-58
2022/04/03 02:59:47;;;;;;;;;;;;;;;11.84;48.68;102079.00;1055795;28;625;-58
2022/04/03 03:00:37;;;;;;;;;;;;;;;11.85;49.16;102072.72;1055996;28;697;-58
2022/04/03 03:01:28;;;;;;;;;;;;;;;11.87;49.35;102086.00;1055778;28;665;-58
2022/04/03 03:02:18;;;;;;;;;;;;;;;11.86;49.22;102079.78;1053717;28;1733;-59
2022/04/03 03:03:09;;;;;;;;;;;;;;;11.86;49.06;102086.94;1048508;28;648;-58
2022/04/03 03:03:59;;;;;;;;;;;;;;;11.85;48.72;102080.72;1048662;28;606;-58
2022/04/03 03:04:50;;;;;;;;;;;;;;;11.86;49.34;102078.94;1049236;28;592;-58
2022/04/03 03:05:41;;;;;;;;;;;;;;;11.85;48.83;102079.88;1048081;28;610;-57
2022/04/03 03:06:32;;;;;;;;;;;;;;;11.83;49.53;102078.13;1049263;28;684;-57
2022/04/03 03:07:23;;;;;;;;;;;;;;;11.84;49.22;102079.00;1047984;28;681;-58
2022/04/03 03:08:13;;;;;;;;;;;;;;;11.82;49.25;102083.59;1049274;28;648;-58
2022/04/03 03:09:04;;;;;;;;;;;;;;;11.82;49.30;102084.41;1049059;28;585;-57
2022/04/03 03:09:54;;;;;;;;;;;;;;;11.82;48.95;102078.25;1048151;28;705;-58
2022/04/03 03:10:45;;;;;;;;;;;;;;;11.81;49.00;102079.19;1049146;28;673;-58
2022/04/03 03:11:36;;;;;;;;;;;;;;;11.82;49.73;102073.72;1049075;28;633;-58
2022/04/03 03:12:26;;;;;;;;;;;;;;;11.81;49.61;102072.03;1049195;28;689;-57
2022/04/03 03:13:16;;;;;;;;;;;;;;;11.81;49.18;102073.84;1049127;28;661;-57
2022/04/03 03:14:07;;;;;;;;;;;;;;;11.81;49.29;102079.19;1047916;28;620;-57
2022/04/03 03:14:57;;;;;;;;;;;;;;;11.81;49.16;102084.53;1048145;28;705;-58
2022/04/03 03:15:48;;;;;;;;;;;;;;;11.80;49.34;102080.13;1049139;28;654;-57
2022/04/03 03:16:38;;;;;;;;;;;;;;;11.81;49.61;102084.53;1049159;28;661;-57
2022/04/03 03:17:28;;;;;;;;;;;;;;;11.81;49.51;102085.38;1048227;28;1955;-58
2022/04/03 03:18:19;;;;;;;;;;;;;;;11.82;49.15;102083.59;1048276;28;646;-57
2022/04/03 03:19:09;;;;;;;;;;;;;;;11.85;49.44;102079.88;1048762;28;680;-57
2022/04/03 03:20:00;;;;;;;;;;;;;;;11.85;49.16;102080.72;1047893;28;728;-57
2022/04/03 03:20:51;;;;;;;;;;;;;;;11.85;49.35;102071.84;1048550;28;701;-58
2022/04/03 03:21:42;;;;;;;;;;;;;;;11.82;49.01;102076.41;1048046;28;655;-58
2022/04/03 03:22:32;;;;;;;;;;;;;;;11.82;49.28;102075.56;1048067;28;625;-59
2022/04/03 03:23:23;;;;;;;;;;;;;;;11.84;49.45;102076.31;1048693;28;621;-58
2022/04/03 03:24:13;;;;;;;;;;;;;;;11.84;49.54;102071.00;1048735;28;655;-58
2022/04/03 03:25:05;;;;;;;;;;;;;;;11.85;49.59;102069.19;1048053;28;641;-58
2022/04/03 03:25:55;;;;;;;;;;;;;;;11.86;49.38;102070.91;1048508;28;673;-58
2022/04/03 03:26:46;;;;;;;;;;;;;;;11.85;49.37;102067.38;1048583;28;656;-59
2022/04/03 03:27:38;;;;;;;;;;;;;;;11.84;49.65;102076.31;1048697;28;649;-58
2022/04/03 03:28:29;;;;;;;;;;;;;;;11.83;49.22;102078.13;1048607;28;661;-58
2022/04/03 03:29:19;;;;;;;;;;;;;;;11.84;49.19;102071.00;1048689;28;681;-58
2022/04/03 03:30:11;;;;;;;;;;;;;;;11.86;49.64;102073.59;1049077;28;739;-58
2022/04/03 03:31:01;;;;;;;;;;;;;;;11.86;49.40;102074.44;1048729;28;732;-58
2022/04/03 03:31:52;;;;;;;;;;;;;;;11.86;50.00;102071.78;1049124;28;695;-58
2022/04/03 03:32:43;;;;;;;;;;;;;;;11.86;49.22;102068.25;1048140;28;712;-58
2022/04/03 03:33:34;;;;;;;;;;;;;;;11.85;49.24;102069.19;1047999;28;630;-58
2022/04/03 03:34:25;;;;;;;;;;;;;;;11.85;49.49;102063.84;1048626;28;573;-58
2022/04/03 03:35:15;;;;;;;;;;;;;;;11.83;49.38;102067.44;1048618;28;696;-58
2022/04/03 03:36:07;;;;;;;;;;;;;;;11.85;49.52;102063.84;1048239;28;566;-59
2022/04/03 03:36:58;;;;;;;;;;;;;;;11.83;49.51;102078.13;1048246;28;645;-59
2022/04/03 03:37:48;;;;;;;;;;;;;;;11.83;49.62;102077.28;1048499;28;658;-58
2022/04/03 03:38:38;;;;;;;;;;;;;;;11.84;49.87;102068.31;1048133;28;682;-58
2022/04/03 03:39:29;;;;;;;;;;;;;;;11.83;49.49;102069.25;1047600;28;646;-59
2022/04/03 03:40:19;;;;;;;;;;;;;;;11.83;49.25;102066.59;1049190;28;669;-58
2022/04/03 03:41:10;;;;;;;;;;;;;;;11.81;49.45;102073.84;1048557;28;693;-58
2022/04/03 03:42:00;;;;;;;;;;;;;;;11.81;48.99;102073.84;1048822;28;708;-59
2022/04/03 03:42:51;;;;;;;;;;;;;;;11.80;49.38;102072.97;1049202;28;1003;-56
2022/04/03 03:43:41;;;;;;;;;;;;;;;11.79;49.40;102075.72;1049113;28;625;-58
2022/04/03 03:44:31;;;;;;;;;;;;;;;11.79;49.61;102073.03;1048206;28;715;-57
2022/04/03 03:45:22;;;;;;;;;;;;;;;11.78;49.83;102074.84;1048059;28;633;-59
2022/04/03 03:46:12;;;;;;;;;;;;;;;11.77;49.40;102070.44;1051897;28;1726;-58
2022/04/03 03:47:03;;;;;;;;;;;;;;;11.77;49.91;102064.25;1052409;28;1125;-58
2022/04/03 03:47:54;;;;;;;;;;;;;;;11.77;49.72;102072.25;1051666;28;661;-57
2022/04/03 03:48:45;;;;;;;;;;;;;;;11.74;49.29;102070.56;1053194;28;984;-59
2022/04/03 03:49:35;;;;;;;;;;;;;;;11.74;49.64;102070.56;1051678;28;716;-59
2022/04/03 03:50:26;;;;;;;;;;;;;;;11.74;49.27;102069.69;1056264;28;653;-58
2022/04/03 03:51:16;;;;;;;;;;;;;;;11.73;49.69;102066.16;1055372;28;681;-59
2022/04/03 03:52:06;;;;;;;;;;;;;;;11.73;49.17;102065.31;1052220;28;690;-59
2022/04/03 03:52:57;;;;;;;;;;;;;;;11.72;49.48;102064.44;1051977;28;638;-59
2022/04/03 03:53:47;;;;;;;;;;;;;;;11.72;49.22;102064.44;1051805;28;716;-59
2022/04/03 03:54:38;;;;;;;;;;;;;;;11.71;49.62;102069.84;1052083;28;701;-59
2022/04/03 03:55:28;;;;;;;;;;;;;;;11.71;49.30;102067.19;1052916;28;645;-59
2022/04/03 03:56:19;;;;;;;;;;;;;;;11.70;49.52;102068.13;1053054;28;633;-59
2022/04/03 03:57:09;;;;;;;;;;;;;;;11.70;49.13;102070.78;1052787;28;661;-58
2022/04/03 03:57:59;;;;;;;;;;;;;;;11.69;49.78;102074.41;1051818;28;677;-58
2022/04/03 03:58:50;;;;;;;;;;;;;;;11.70;49.82;102065.44;1052754;28;694;-58
2022/04/03 03:59:40;;;;;;;;;;;;;;;11.68;49.27;102067.31;1052909;28;773;-58
2022/04/03 04:00:31;;;;;;;;;;;;;;;11.68;49.27;102067.31;1052724;28;669;-58
2022/04/03 04:01:21;;;;;;;;;;;;;;;11.68;49.18;102062.00;1052435;28;1040;-58
2022/04/03 04:02:11;;;;;;;;;;;;;;;11.66;49.22;102067.41;1050594;28;1749;-58
2022/04/03 04:03:02;;;;;;;;;;;;;;;11.65;49.43;102068.34;1049207;28;685;-59
2022/04/03 04:03:52;;;;;;;;;;;;;;;11.65;49.62;102067.47;1052591;28;1698;-59
2022/04/03 04:04:43;;;;;;;;;;;;;;;11.65;49.46;102068.34;1053282;28;672;-59
2022/04/03 04:05:33;;;;;;;;;;;;;;;11.65;49.81;102076.34;1049349;28;700;-59
2022/04/03 04:06:23;;;;;;;;;;;;;;;11.66;49.70;102077.22;1049331;28;652;-59
2022/04/03 04:07:14;;;;;;;;;;;;;;;11.65;49.55;102068.34;1049786;28;723;-59
2022/04/03 04:08:04;;;;;;;;;;;;;;;11.63;49.68;102069.38;1049144;28;943;-59
2022/04/03 04:08:55;;;;;;;;;;;;;;;11.64;49.46;102071.97;1049261;28;618;-59
2022/04/03 04:09:45;;;;;;;;;;;;;;;11.64;49.47;102071.13;1050309;28;1700;-58
2022/04/03 04:10:36;;;;;;;;;;;;;;;11.63;49.66;102064.03;1052550;28;666;-59
2022/04/03 04:11:26;;;;;;;;;;;;;;;11.61;49.24;102071.25;1052347;28;701;-59
2022/04/03 04:12:17;;;;;;;;;;;;;;;11.61;49.40;102074.81;1052493;28;661;-59
2022/04/03 04:13:07;;;;;;;;;;;;;;;11.61;50.00;102076.59;1052169;28;701;-59
2022/04/03 04:13:58;;;;;;;;;;;;;;;11.60;49.48;102078.41;1052407;28;720;-59
2022/04/03 04:14:48;;;;;;;;;;;;;;;11.60;49.32;102074.88;1052179;28;653;-59
2022/04/03 04:15:38;;;;;;;;;;;;;;;11.59;49.75;102078.47;1052052;28;1686;-59
2022/04/03 04:16:29;;;;;;;;;;;;;;;11.58;49.41;102076.75;1052528;28;701;-59
2022/04/03 04:17:19;;;;;;;;;;;;;;;11.56;49.90;102075.97;1052207;28;1898;-58
2022/04/03 04:18:10;;;;;;;;;;;;;;;11.57;49.89;102075.03;1056575;28;708;-59
2022/04/03 04:19:00;;;;;;;;;;;;;;;11.55;49.35;102076.91;1056535;28;581;-58
2022/04/03 04:19:51;;;;;;;;;;;;;;;11.54;49.63;102075.16;1053060;28;665;-58
2022/04/03 04:20:41;;;;;;;;;;;;;;;11.54;49.71;102070.69;1052371;28;713;-58
2022/04/03 04:21:32;;;;;;;;;;;;;;;11.54;49.93;102072.50;1052116;28;622;-58
2022/04/03 04:22:22;;;;;;;;;;;;;;;11.55;49.58;102075.09;1056624;28;693;-59
2022/04/03 04:23:13;;;;;;;;;;;;;;;11.53;49.80;102076.97;1056693;28;692;-58
2022/04/03 04:24:03;;;;;;;;;;;;;;;11.54;49.97;102069.81;1052760;28;696;-58
2022/04/03 04:24:54;;;;;;;;;;;;;;;11.54;49.63;102076.03;1052366;28;618;-59
2022/04/03 04:25:44;;;;;;;;;;;;;;;11.55;49.92;102080.44;1052174;28;642;-59